Time;durP1;ratioP1;P1;durP2;ratioP2;P2;SDS_P1;SDS_P2;PMS_P1;PMS_P2;Temp;Humidity;BMP_temperature;BMP_pressure;BME280_temperature;BME280_humidity;BME280_pressure;Samples;Min_cycle;Max_cycle;Signal;HPM_P1;HPM_P2
2020/04/26 00:00:28;;;;;;;6.25;3.2;;;;;;;8.91;49.90039;94454.77;;;;
2020/04/26 00:01:37;;;;;;;4.4;3.1;;;;;;;8.88;50.12109;94458.91;;;;
2020/04/26 00:02:38;;;;;;;4.4;3.1;;;;;;;8.88;50.12109;94458.91;;;;
2020/04/26 00:03:38;;;;;;;4.4;3.1;;;;;;;8.88;50.12109;94458.91;;;;
2020/04/26 00:04:39;;;;;;;4.4;3.1;;;;;;;8.88;50.12109;94458.91;;;;
2020/04/26 00:05:40;;;;;;;4.4;3.1;;;;;;;8.88;50.12109;94458.91;;;;
2020/04/26 00:06:40;;;;;;;4.4;3.1;;;;;;;8.88;50.12109;94458.91;;;;
2020/04/26 00:07:41;;;;;;;4.4;3.1;;;;;;;8.88;50.12109;94458.91;;;;
2020/04/26 00:08:42;;;;;;;4.4;3.1;;;;;;;8.88;50.12109;94458.91;;;;
2020/04/26 00:09:42;;;;;;;4.4;3.1;;;;;;;8.88;50.12109;94458.91;;;;
2020/04/26 00:10:42;;;;;;;4.4;3.1;;;;;;;8.88;50.12109;94458.91;;;;
2020/04/26 00:11:43;;;;;;;4.4;3.1;;;;;;;8.88;50.12109;94458.91;;;;
2020/04/26 00:12:43;;;;;;;3.15;2.85;;;;;;;8.39;49.04688;94464.01;;;;
2020/04/26 00:13:44;;;;;;;3.15;2.85;;;;;;;8.39;49.04688;94464.01;;;;
2020/04/26 00:14:44;;;;;;;3.15;2.85;;;;;;;8.39;49.04688;94464.01;;;;
2020/04/26 00:15:45;;;;;;;5.5;3;;;;;;;8.35;49.66504;94465.55;;;;
2020/04/26 00:16:45;;;;;;;5.5;3;;;;;;;8.35;49.66504;94465.55;;;;
2020/04/26 00:17:46;;;;;;;4.2;3.25;;;;;;;8.39;50.1084;94468.16;;;;
2020/04/26 00:18:46;;;;;;;4.2;3.25;;;;;;;8.39;50.1084;94468.16;;;;
2020/04/26 00:19:47;;;;;;;4.2;3.25;;;;;;;8.39;50.1084;94468.16;;;;
2020/04/26 00:20:47;;;;;;;5.1;3.35;;;;;;;8.4;50.62402;94468.33;;;;
2020/04/26 00:21:48;;;;;;;5.1;3.35;;;;;;;8.4;50.62402;94468.33;;;;
2020/04/26 00:22:48;;;;;;;5.1;3.35;;;;;;;8.4;50.62402;94468.33;;;;
2020/04/26 00:23:49;;;;;;;5.700001;3.7;;;;;;;8.43;50.87402;94474.69;;;;
2020/04/26 00:24:49;;;;;;;5.700001;3.7;;;;;;;8.43;50.87402;94474.69;;;;
2020/04/26 00:25:50;;;;;;;5.700001;3.7;;;;;;;8.43;50.87402;94474.69;;;;
2020/04/26 00:26:50;;;;;;;5.700001;3.7;;;;;;;8.43;50.87402;94474.69;;;;
2020/04/26 00:27:51;;;;;;;5.700001;3.7;;;;;;;8.43;50.87402;94474.69;;;;
2020/04/26 00:28:51;;;;;;;5.100001;3.15;;;;;;;8.49;51.2666;94465.66;;;;
2020/04/26 00:29:52;;;;;;;5.100001;3.15;;;;;;;8.49;51.2666;94465.66;;;;
2020/04/26 00:30:52;;;;;;;5.100001;3.15;;;;;;;8.49;51.2666;94465.66;;;;
2020/04/26 00:31:53;;;;;;;3.5;3.05;;;;;;;8.49;51.37402;94466.46;;;;
2020/04/26 00:32:53;;;;;;;3.5;3.05;;;;;;;8.49;51.37402;94466.46;;;;
2020/04/26 00:33:54;;;;;;;5.650001;3.5;;;;;;;8.45;51.65918;94460.47;;;;
2020/04/26 00:34:54;;;;;;;5.650001;3.5;;;;;;;8.45;51.65918;94460.47;;;;
2020/04/26 00:35:55;;;;;;;5.650001;3.5;;;;;;;8.45;51.65918;94460.47;;;;
2020/04/26 00:36:55;;;;;;;4;3.400001;;;;;;;8.4;51.97461;94463.87;;;;
2020/04/26 00:37:55;;;;;;;4;3.400001;;;;;;;8.4;51.97461;94463.87;;;;
2020/04/26 00:38:56;;;;;;;4;3.400001;;;;;;;8.4;51.97461;94463.87;;;;
2020/04/26 00:39:57;;;;;;;4;3.400001;;;;;;;8.4;51.97461;94463.87;;;;
2020/04/26 00:40:57;;;;;;;4;3.400001;;;;;;;8.4;51.97461;94463.87;;;;
2020/04/26 00:41:58;;;;;;;4;3.400001;;;;;;;8.4;51.97461;94463.87;;;;
2020/04/26 00:42:58;;;;;;;4.950001;3.85;;;;;;;8.38;52.34668;94471.92;;;;
2020/04/26 00:43:59;;;;;;;4.950001;3.85;;;;;;;8.38;52.34668;94471.92;;;;
2020/04/26 00:44:59;;;;;;;4.85;3.6;;;;;;;8.38;52.41113;94475.95;;;;
2020/04/26 00:46:00;;;;;;;4.85;3.6;;;;;;;8.38;52.41113;94475.95;;;;
2020/04/26 00:47:00;;;;;;;4.85;3.6;;;;;;;8.38;52.41113;94475.95;;;;
2020/04/26 00:48:01;;;;;;;6.2;3.7;;;;;;;8.33;52.67285;94475.32;;;;
2020/04/26 00:49:01;;;;;;;6.2;3.7;;;;;;;8.33;52.67285;94475.32;;;;
2020/04/26 00:50:02;;;;;;;6.6;3.85;;;;;;;8.3;52.8623;94474.05;;;;
2020/04/26 00:51:02;;;;;;;6.6;3.85;;;;;;;8.3;52.8623;94474.05;;;;
2020/04/26 00:52:03;;;;;;;6.6;3.85;;;;;;;8.3;52.8623;94474.05;;;;
2020/04/26 00:53:04;;;;;;;3.9;3.5;;;;;;;8.27;53.12695;94481.69;;;;
2020/04/26 00:54:04;;;;;;;3.9;3.5;;;;;;;8.27;53.12695;94481.69;;;;
2020/04/26 00:55:05;;;;;;;3.9;3.5;;;;;;;8.27;53.12695;94481.69;;;;
2020/04/26 00:56:06;;;;;;;3.9;3.5;;;;;;;8.27;53.12695;94481.69;;;;
2020/04/26 00:57:06;;;;;;;3.9;3.5;;;;;;;8.27;53.12695;94481.69;;;;
2020/04/26 00:58:07;;;;;;;3.9;3.5;;;;;;;8.27;53.12695;94481.69;;;;
2020/04/26 00:59:08;;;;;;;4.25;3.85;;;;;;;8.29;53.40723;94478.75;;;;
2020/04/26 01:00:08;;;;;;;4.25;3.85;;;;;;;8.29;53.40723;94478.75;;;;
2020/04/26 01:01:20;;;;;;;5.349999;3.85;;;;;;;8.31;53.47461;94480.13;;;;
2020/04/26 01:02:21;;;;;;;5.349999;3.85;;;;;;;8.31;53.47461;94480.13;;;;
2020/04/26 01:04:17;;;;;;;5.349999;3.85;;;;;;;8.31;53.47461;94480.13;;;;
2020/04/26 01:10:32;;;;;;;4.5;3.8;;;;;;;8.25;54.07715;94479.35;;;;
2020/04/26 01:11:32;;;;;;;4.5;3.8;;;;;;;8.25;54.07715;94479.35;;;;
2020/04/26 01:12:33;;;;;;;5.600001;3.9;;;;;;;8.23;54.26758;94476.05;;;;
2020/04/26 01:13:33;;;;;;;5.600001;3.9;;;;;;;8.23;54.26758;94476.05;;;;
2020/04/26 01:14:34;;;;;;;6.2;4;;;;;;;8.21;54.52246;94470.92;;;;
2020/04/26 01:15:34;;;;;;;6.2;4;;;;;;;8.21;54.52246;94470.92;;;;
2020/04/26 01:16:35;;;;;;;6.2;4;;;;;;;8.21;54.52246;94470.92;;;;
2020/04/26 01:17:35;;;;;;;6.2;4;;;;;;;8.21;54.52246;94470.92;;;;
2020/04/26 01:18:35;;;;;;;6.2;4;;;;;;;8.21;54.52246;94470.92;;;;
2020/04/26 01:19:36;;;;;;;6.2;4;;;;;;;8.21;54.52246;94470.92;;;;
2020/04/26 01:20:37;;;;;;;6.2;4;;;;;;;8.21;54.52246;94470.92;;;;
2020/04/26 01:21:37;;;;;;;6.2;4;;;;;;;8.21;54.52246;94470.92;;;;
2020/04/26 01:22:38;;;;;;;6.2;4;;;;;;;8.21;54.52246;94470.92;;;;
2020/04/26 01:23:38;;;;;;;6.2;4;;;;;;;8.21;54.52246;94470.92;;;;
2020/04/26 01:24:39;;;;;;;6.2;4;;;;;;;8.21;54.52246;94470.92;;;;
2020/04/26 01:25:39;;;;;;;7.950001;3.65;;;;;;;7.77;53.24902;94477.44;;;;
2020/04/26 01:26:40;;;;;;;7.950001;3.65;;;;;;;7.77;53.24902;94477.44;;;;
2020/04/26 01:27:41;;;;;;;5.049999;3.85;;;;;;;7.73;53.77734;94482.61;;;;
2020/04/26 01:28:41;;;;;;;5.049999;3.85;;;;;;;7.73;53.77734;94482.61;;;;
2020/04/26 01:29:41;;;;;;;5.049999;3.85;;;;;;;7.73;53.77734;94482.61;;;;
2020/04/26 01:30:42;;;;;;;5.049999;3.85;;;;;;;7.73;53.77734;94482.61;;;;
2020/04/26 01:31:43;;;;;;;5.049999;3.85;;;;;;;7.73;53.77734;94482.61;;;;
2020/04/26 01:32:43;;;;;;;5.049999;3.85;;;;;;;7.73;53.77734;94482.61;;;;
2020/04/26 01:33:44;;;;;;;5.049999;3.85;;;;;;;7.73;53.77734;94482.61;;;;
2020/04/26 01:34:44;;;;;;;5.049999;3.85;;;;;;;7.73;53.77734;94482.61;;;;
2020/04/26 01:35:45;;;;;;;5.049999;3.85;;;;;;;7.73;53.77734;94482.61;;;;
2020/04/26 01:36:45;;;;;;;5.049999;3.85;;;;;;;7.73;53.77734;94482.61;;;;
2020/04/26 01:37:46;;;;;;;5.049999;3.85;;;;;;;7.73;53.77734;94482.61;;;;
2020/04/26 01:38:46;;;;;;;5.95;4.050001;;;;;;;7.35;53.13086;94478.72;;;;
2020/04/26 01:43:35;;;;;;;6.099999;4.2;;;;;;;7.34;54.4668;94478.83;;;;
2020/04/26 01:44:36;;;;;;;6.099999;4.2;;;;;;;7.34;54.4668;94478.83;;;;
2020/04/26 01:45:36;;;;;;;6.099999;4.2;;;;;;;7.34;54.4668;94478.83;;;;
2020/04/26 01:46:37;;;;;;;7;4.4;;;;;;;7.35;55.06543;94474.69;;;;
2020/04/26 01:47:37;;;;;;;7;4.4;;;;;;;7.35;55.06543;94474.69;;;;
2020/04/26 01:48:38;;;;;;;7;4.4;;;;;;;7.35;55.06543;94474.69;;;;
2020/04/26 01:49:38;;;;;;;7;4.4;;;;;;;7.35;55.06543;94474.69;;;;
2020/04/26 01:50:38;;;;;;;7;4.4;;;;;;;7.35;55.06543;94474.69;;;;
2020/04/26 01:51:39;;;;;;;7;4.4;;;;;;;7.35;55.06543;94474.69;;;;
2020/04/26 01:52:39;;;;;;;7;4.4;;;;;;;7.35;55.06543;94474.69;;;;
2020/04/26 01:53:40;;;;;;;7;4.4;;;;;;;7.35;55.06543;94474.69;;;;
2020/04/26 01:54:40;;;;;;;7;4.4;;;;;;;7.35;55.06543;94474.69;;;;
2020/04/26 01:55:41;;;;;;;7;4.4;;;;;;;7.35;55.06543;94474.69;;;;
2020/04/26 01:56:41;;;;;;;5.55;4.25;;;;;;;6.96;54.18359;94471.92;;;;
2020/04/26 01:57:42;;;;;;;5.55;4.25;;;;;;;6.96;54.18359;94471.92;;;;
2020/04/26 01:58:42;;;;;;;5.55;4.25;;;;;;;6.96;54.18359;94471.92;;;;
2020/04/26 01:59:43;;;;;;;5.15;4.4;;;;;;;6.92;54.77637;94478.69;;;;
2020/04/26 02:00:43;;;;;;;5.15;4.4;;;;;;;6.92;54.77637;94478.69;;;;
2020/04/26 02:01:44;;;;;;;5.15;4.4;;;;;;;6.92;54.77637;94478.69;;;;
2020/04/26 02:02:44;;;;;;;5.15;4.4;;;;;;;6.92;54.77637;94478.69;;;;
2020/04/26 02:03:44;;;;;;;5.15;4.4;;;;;;;6.92;54.77637;94478.69;;;;
2020/04/26 02:04:45;;;;;;;5.15;4.4;;;;;;;6.92;54.77637;94478.69;;;;
2020/04/26 02:05:45;;;;;;;5.15;4.4;;;;;;;6.92;54.77637;94478.69;;;;
2020/04/26 02:06:46;;;;;;;5.15;4.4;;;;;;;6.92;54.77637;94478.69;;;;
2020/04/26 02:07:46;;;;;;;5.15;4.4;;;;;;;6.92;54.77637;94478.69;;;;
2020/04/26 02:08:47;;;;;;;5.15;4.4;;;;;;;6.92;54.77637;94478.69;;;;
2020/04/26 02:09:47;;;;;;;5.15;4.4;;;;;;;6.92;54.77637;94478.69;;;;
2020/04/26 02:10:48;;;;;;;5.9;4.050001;;;;;;;6.67;54.06152;94481.7;;;;
2020/04/26 02:11:48;;;;;;;5.9;4.050001;;;;;;;6.67;54.06152;94481.7;;;;
2020/04/26 02:12:49;;;;;;;4.8;4.400001;;;;;;;6.67;54.7666;94481.15;;;;
2020/04/26 02:13:49;;;;;;;4.8;4.400001;;;;;;;6.67;54.7666;94481.15;;;;
2020/04/26 02:14:50;;;;;;;4.8;4.400001;;;;;;;6.67;54.7666;94481.15;;;;
2020/04/26 02:15:50;;;;;;;4.8;4.400001;;;;;;;6.67;54.7666;94481.15;;;;
2020/04/26 02:16:51;;;;;;;4.8;4.400001;;;;;;;6.67;54.7666;94481.15;;;;
2020/04/26 02:17:51;;;;;;;4.8;4.400001;;;;;;;6.67;54.7666;94481.15;;;;
2020/04/26 02:18:52;;;;;;;4.8;4.400001;;;;;;;6.67;54.7666;94481.15;;;;
2020/04/26 02:19:52;;;;;;;4.8;4.400001;;;;;;;6.67;54.7666;94481.15;;;;
2020/04/26 02:20:52;;;;;;;4.8;4.400001;;;;;;;6.67;54.7666;94481.15;;;;
2020/04/26 02:21:53;;;;;;;4.8;4.400001;;;;;;;6.67;54.7666;94481.15;;;;
2020/04/26 02:22:53;;;;;;;4.8;4.400001;;;;;;;6.67;54.7666;94481.15;;;;
2020/04/26 02:23:54;;;;;;;7.3;4.149999;;;;;;;6.53;54.28906;94478.53;;;;
2020/04/26 02:24:54;;;;;;;7.3;4.149999;;;;;;;6.53;54.28906;94478.53;;;;
2020/04/26 02:25:55;;;;;;;6.999999;4.5;;;;;;;6.54;54.97266;94481.48;;;;
2020/04/26 02:26:56;;;;;;;6.999999;4.5;;;;;;;6.54;54.97266;94481.48;;;;
2020/04/26 02:27:56;;;;;;;6.999999;4.5;;;;;;;6.54;54.97266;94481.48;;;;
2020/04/26 02:28:56;;;;;;;6.999999;4.5;;;;;;;6.54;54.97266;94481.48;;;;
2020/04/26 02:29:57;;;;;;;6.999999;4.5;;;;;;;6.54;54.97266;94481.48;;;;
2020/04/26 02:30:57;;;;;;;6.999999;4.5;;;;;;;6.54;54.97266;94481.48;;;;
2020/04/26 02:31:58;;;;;;;6.999999;4.5;;;;;;;6.54;54.97266;94481.48;;;;
2020/04/26 02:33:33;;;;;;;6.999999;4.5;;;;;;;6.54;54.97266;94481.48;;;;
2020/04/26 02:34:41;;;;;;;6.999999;4.5;;;;;;;6.54;54.97266;94481.48;;;;
2020/04/26 02:35:51;;;;;;;6.999999;4.5;;;;;;;6.54;54.97266;94481.48;;;;
2020/04/26 02:37:30;;;;;;;6.6;4.75;;;;;;;6.3;54.55859;94481.55;;;;
2020/04/26 02:38:41;;;;;;;6.6;4.75;;;;;;;6.3;54.55859;94481.55;;;;
2020/04/26 02:43:49;;;;;;;7.9;4.85;;;;;;;6.26;55.36426;94481.19;;;;
2020/04/26 02:44:59;;;;;;;7.9;4.85;;;;;;;6.26;55.36426;94481.19;;;;
2020/04/26 02:46:08;;;;;;;7.9;4.85;;;;;;;6.26;55.36426;94481.19;;;;
2020/04/26 02:57:40;;;;;;;5.950001;5;;;;;;;5.93;55.75781;94481.27;;;;
2020/04/26 03:04:03;;;;;;;5.699999;4.75;;;;;;;5.69;55.33301;94484.84;;;;
2020/04/26 03:10:58;;;;;;;6.550001;5.200001;;;;;;;5.69;56.24902;94481.24;;;;
2020/04/26 03:12:07;;;;;;;6.550001;5.200001;;;;;;;5.69;56.24902;94481.24;;;;
2020/04/26 03:13:13;;;;;;;6.550001;5.200001;;;;;;;5.69;56.24902;94481.24;;;;
2020/04/26 03:14:25;;;;;;;6.550001;5.200001;;;;;;;5.69;56.24902;94481.24;;;;
2020/04/26 03:15:34;;;;;;;6.550001;5.200001;;;;;;;5.69;56.24902;94481.24;;;;
2020/04/26 03:16:43;;;;;;;7.35;4.95;;;;;;;5.49;55.93457;94473.56;;;;
2020/04/26 03:17:50;;;;;;;7.35;4.95;;;;;;;5.49;55.93457;94473.56;;;;
2020/04/26 03:20:04;;;;;;;7.35;4.95;;;;;;;5.49;55.93457;94473.56;;;;
2020/04/26 03:21:12;;;;;;;5.65;5.05;;;;;;;5.49;56.65723;94474.9;;;;
2020/04/26 03:22:19;;;;;;;5.65;5.05;;;;;;;5.49;56.65723;94474.9;;;;
2020/04/26 03:24:00;;;;;;;5.65;5.05;;;;;;;5.49;56.65723;94474.9;;;;
2020/04/26 03:25:08;;;;;;;5.65;5.05;;;;;;;5.49;56.65723;94474.9;;;;
2020/04/26 03:26:32;;;;;;;5.65;5.05;;;;;;;5.49;56.65723;94474.9;;;;
2020/04/26 03:27:37;;;;;;;5.65;5.05;;;;;;;5.49;56.65723;94474.9;;;;
2020/04/26 03:28:57;;;;;;;5.65;5.05;;;;;;;5.49;56.65723;94474.9;;;;
2020/04/26 03:30:05;;;;;;;6.25;3.95;;;;;;;5.29;56.29102;94482.75;;;;
2020/04/26 03:31:12;;;;;;;6.25;3.95;;;;;;;5.29;56.29102;94482.75;;;;
2020/04/26 03:32:20;;;;;;;4.35;3.6;;;;;;;5.29;57.0459;94489.43;;;;
2020/04/26 03:33:59;;;;;;;4.35;3.6;;;;;;;5.29;57.0459;94489.43;;;;
2020/04/26 03:35:52;;;;;;;4.35;3.6;;;;;;;5.29;57.0459;94489.43;;;;
2020/04/26 03:36:59;;;;;;;4.35;3.6;;;;;;;5.29;57.0459;94489.43;;;;
2020/04/26 03:38:07;;;;;;;4.35;3.6;;;;;;;5.29;57.0459;94489.43;;;;
2020/04/26 03:39:20;;;;;;;4.35;3.6;;;;;;;5.29;57.0459;94489.43;;;;
2020/04/26 03:40:29;;;;;;;4.35;3.6;;;;;;;5.29;57.0459;94489.43;;;;
2020/04/26 03:41:53;;;;;;;4.35;3.6;;;;;;;5.29;57.0459;94489.43;;;;
2020/04/26 03:43:35;;;;;;;7.3;3.95;;;;;;;5.02;56.66016;94481.81;;;;
2020/04/26 03:44:46;;;;;;;7.3;3.95;;;;;;;5.02;56.66016;94481.81;;;;
2020/04/26 03:51:09;;;;;;;4.400001;3.9;;;;;;;5.01;57.48633;94479.36;;;;
2020/04/26 03:52:22;;;;;;;4.400001;3.9;;;;;;;5.01;57.48633;94479.36;;;;
2020/04/26 03:54:34;;;;;;;4.400001;3.9;;;;;;;5.01;57.48633;94479.36;;;;
2020/04/26 03:55:42;;;;;;;4.400001;3.9;;;;;;;5.01;57.48633;94479.36;;;;
2020/04/26 03:56:52;;;;;;;5.55;4.95;;;;;;;4.74;57.28027;94476.64;;;;
2020/04/26 03:57:59;;;;;;;5.55;4.95;;;;;;;4.74;57.28027;94476.64;;;;
2020/04/26 03:59:25;;;;;;;5.400001;4.400001;;;;;;;4.73;57.97852;94484.79;;;;
2020/04/26 04:00:52;;;;;;;5.400001;4.400001;;;;;;;4.73;57.97852;94484.79;;;;
2020/04/26 04:02:01;;;;;;;5.400001;4.400001;;;;;;;4.73;57.97852;94484.79;;;;
2020/04/26 04:03:10;;;;;;;5.400001;4.400001;;;;;;;4.73;57.97852;94484.79;;;;
2020/04/26 04:04:20;;;;;;;5.400001;4.400001;;;;;;;4.73;57.97852;94484.79;;;;
2020/04/26 04:05:42;;;;;;;5.400001;4.400001;;;;;;;4.73;57.97852;94484.79;;;;
2020/04/26 04:06:51;;;;;;;5.400001;4.400001;;;;;;;4.73;57.97852;94484.79;;;;
2020/04/26 04:08:12;;;;;;;5.400001;4.400001;;;;;;;4.73;57.97852;94484.79;;;;
2020/04/26 04:14:19;;;;;;;5.750001;4.45;;;;;;;4.52;58.39746;94480.22;;;;
2020/04/26 04:15:26;;;;;;;5.750001;4.45;;;;;;;4.52;58.39746;94480.22;;;;
2020/04/26 04:16:31;;;;;;;5.750001;4.45;;;;;;;4.52;58.39746;94480.22;;;;
2020/04/26 04:17:41;;;;;;;5.750001;4.45;;;;;;;4.52;58.39746;94480.22;;;;
2020/04/26 04:18:51;;;;;;;5.750001;4.45;;;;;;;4.52;58.39746;94480.22;;;;
2020/04/26 04:19:58;;;;;;;5.750001;4.45;;;;;;;4.52;58.39746;94480.22;;;;
2020/04/26 04:21:07;;;;;;;5.750001;4.45;;;;;;;4.52;58.39746;94480.22;;;;
2020/04/26 04:22:18;;;;;;;5.750001;4.45;;;;;;;4.52;58.39746;94480.22;;;;
2020/04/26 04:23:34;;;;;;;6.549999;4.4;;;;;;;4.38;57.87988;94481.78;;;;
2020/04/26 04:29:50;;;;;;;4.7;4.15;;;;;;;4.4;58.50781;94483.31;;;;
2020/04/26 04:30:57;;;;;;;4.7;4.15;;;;;;;4.4;58.50781;94483.31;;;;
2020/04/26 04:37:49;;;;;;;7.05;4.149999;;;;;;;4.35;57.79004;94489.42;;;;
2020/04/26 04:39:14;;;;;;;7.05;4.149999;;;;;;;4.35;57.79004;94489.42;;;;
2020/04/26 04:41:26;;;;;;;7.05;4.149999;;;;;;;4.35;57.79004;94489.42;;;;
2020/04/26 04:42:34;;;;;;;7.05;4.149999;;;;;;;4.35;57.79004;94489.42;;;;
2020/04/26 04:43:47;;;;;;;7.05;4.149999;;;;;;;4.35;57.79004;94489.42;;;;
2020/04/26 04:45:01;;;;;;;7.05;4.149999;;;;;;;4.35;57.79004;94489.42;;;;
2020/04/26 04:46:11;;;;;;;7.05;4.149999;;;;;;;4.35;57.79004;94489.42;;;;
2020/04/26 04:52:34;;;;;;;5.200001;4.35;;;;;;;4.37;57.41113;94500.31;;;;
2020/04/26 04:58:56;;;;;;;7.2;4.7;;;;;;;4.41;57.20508;94502.31;;;;
2020/04/26 05:00:07;;;;;;;5.85;4.75;;;;;;;4.5;57.94824;94497.41;;;;
2020/04/26 05:06:28;;;;;;;5.85;4.75;;;;;;;4.5;57.94824;94497.41;;;;
2020/04/26 05:07:36;;;;;;;5.85;4.75;;;;;;;4.5;57.94824;94497.41;;;;
2020/04/26 05:08:46;;;;;;;5.85;4.75;;;;;;;4.5;57.94824;94497.41;;;;
2020/04/26 05:09:58;;;;;;;5.85;4.75;;;;;;;4.5;57.94824;94497.41;;;;
2020/04/26 05:11:06;;;;;;;5.65;4.8;;;;;;;4.79;57.42578;94496.84;;;;
2020/04/26 05:12:29;;;;;;;5.65;4.8;;;;;;;4.79;57.42578;94496.84;;;;
2020/04/26 05:13:37;;;;;;;6;4.900001;;;;;;;4.93;58.04883;94494.37;;;;
2020/04/26 05:14:54;;;;;;;6;4.900001;;;;;;;4.93;58.04883;94494.37;;;;
2020/04/26 05:16:30;;;;;;;6;4.900001;;;;;;;4.93;58.04883;94494.37;;;;
2020/04/26 05:17:39;;;;;;;6;4.900001;;;;;;;4.93;58.04883;94494.37;;;;
2020/04/26 05:18:47;;;;;;;6;4.900001;;;;;;;4.93;58.04883;94494.37;;;;
2020/04/26 05:20:11;;;;;;;6;4.900001;;;;;;;4.93;58.04883;94494.37;;;;
2020/04/26 05:21:21;;;;;;;6;4.900001;;;;;;;4.93;58.04883;94494.37;;;;
2020/04/26 05:22:31;;;;;;;6;4.900001;;;;;;;4.93;58.04883;94494.37;;;;
2020/04/26 05:24:17;;;;;;;6;4.900001;;;;;;;4.93;58.04883;94494.37;;;;
2020/04/26 05:26:29;;;;;;;7.149999;5.000001;;;;;;;5.34;57.33887;94499.49;;;;
2020/04/26 05:27:44;;;;;;;6.349999;5.400001;;;;;;;5.51;57.97754;94494.65;;;;
2020/04/26 05:28:51;;;;;;;6.349999;5.400001;;;;;;;5.51;57.97754;94494.65;;;;
2020/04/26 05:30:14;;;;;;;6.349999;5.400001;;;;;;;5.51;57.97754;94494.65;;;;
2020/04/26 05:36:39;;;;;;;6.349999;5.400001;;;;;;;5.51;57.97754;94494.65;;;;
2020/04/26 05:37:47;;;;;;;8.150001;5.65;;;;;;;6.05;57.10352;94500.98;;;;
2020/04/26 05:39:58;;;;;;;8.150001;5.65;;;;;;;6.05;57.10352;94500.98;;;;
2020/04/26 05:41:05;;;;;;;8.449998;6.349999;;;;;;;6.25;57.67383;94505.44;;;;
2020/04/26 05:42:25;;;;;;;8.449998;6.349999;;;;;;;6.25;57.67383;94505.44;;;;
2020/04/26 05:43:48;;;;;;;8.449998;6.349999;;;;;;;6.25;57.67383;94505.44;;;;
2020/04/26 05:45:46;;;;;;;8.449998;6.349999;;;;;;;6.25;57.67383;94505.44;;;;
2020/04/26 05:47:10;;;;;;;8.449998;6.349999;;;;;;;6.25;57.67383;94505.44;;;;
2020/04/26 05:58:57;;;;;;;7.800001;6.599999;;;;;;;7.11;57.70313;94506.62;;;;
2020/04/26 06:00:04;;;;;;;7.800001;6.599999;;;;;;;7.11;57.70313;94506.62;;;;
2020/04/26 06:01:25;;;;;;;7.800001;6.599999;;;;;;;7.11;57.70313;94506.62;;;;
2020/04/26 06:02:35;;;;;;;7.800001;6.599999;;;;;;;7.11;57.70313;94506.62;;;;
2020/04/26 06:03:48;;;;;;;7.400001;6.349999;;;;;;;7.75;57.07227;94511.8;;;;
2020/04/26 06:04:57;;;;;;;7.400001;6.349999;;;;;;;7.75;57.07227;94511.8;;;;
2020/04/26 06:06:12;;;;;;;7.400001;6.349999;;;;;;;7.75;57.07227;94511.8;;;;
2020/04/26 06:07:22;;;;;;;7.85;6.199998;;;;;;;7.97;57.49707;94520.03;;;;
2020/04/26 06:08:29;;;;;;;7.85;6.199998;;;;;;;7.97;57.49707;94520.03;;;;
2020/04/26 06:09:37;;;;;;;8.550001;6.6;;;;;;;8.23;57.61719;94518.55;;;;
2020/04/26 06:11:00;;;;;;;8.550001;6.6;;;;;;;8.23;57.61719;94518.55;;;;
2020/04/26 06:13:13;;;;;;;8.25;6.85;;;;;;;8.48;57.6709;94519.17;;;;
2020/04/26 06:14:23;;;;;;;8.25;6.85;;;;;;;8.48;57.6709;94519.17;;;;
2020/04/26 06:16:04;;;;;;;8.25;6.85;;;;;;;8.48;57.6709;94519.17;;;;
2020/04/26 06:17:13;;;;;;;8.25;6.85;;;;;;;8.48;57.6709;94519.17;;;;
2020/04/26 06:23:34;;;;;;;6.85;6.149999;;;;;;;9;56.31641;94516.57;;;;
2020/04/26 06:30:07;;;;;;;8.699999;6.600001;;;;;;;9.55;56.22559;94516.61;;;;
2020/04/26 06:31:16;;;;;;;8.15;6.349999;;;;;;;10;55.58594;94508.17;;;;
2020/04/26 06:32:54;;;;;;;8.15;6.349999;;;;;;;10;55.58594;94508.17;;;;
2020/04/26 06:34:05;;;;;;;6.900001;6.200001;;;;;;;10.56;54.77344;94516.39;;;;
2020/04/26 06:36:12;;;;;;;6.900001;6.200001;;;;;;;10.56;54.77344;94516.39;;;;
2020/04/26 06:37:21;;;;;;;6.8;6;;;;;;;11.18;53.82813;94515.35;;;;
2020/04/26 06:38:29;;;;;;;7.55;6.6;;;;;;;11.82;52.78516;94520.95;;;;
2020/04/26 06:44:55;;;;;;;8.95;6.2;;;;;;;13.06;50.74512;94519.53;;;;
2020/04/26 06:46:01;;;;;;;7.4;6.400001;;;;;;;13.62;49.65918;94519.36;;;;
2020/04/26 06:47:17;;;;;;;7.4;6.400001;;;;;;;13.62;49.65918;94519.36;;;;
2020/04/26 06:48:27;;;;;;;7.4;6.400001;;;;;;;13.62;49.65918;94519.36;;;;
2020/04/26 06:50:40;;;;;;;7.65;6.35;;;;;;;14.17;48.85254;94521.56;;;;
2020/04/26 06:51:52;;;;;;;7.299999;6.1;;;;;;;14.68;47.99414;94523.56;;;;
2020/04/26 06:53:00;;;;;;;7.299999;6.1;;;;;;;14.68;47.99414;94523.56;;;;
2020/04/26 06:54:09;;;;;;;7.050001;6.35;;;;;;;15.13;46.84473;94520.01;;;;
2020/04/26 07:05:49;;;;;;;6.65;6.050001;;;;;;;16.67;44.08691;94521.57;;;;
2020/04/26 07:06:55;;;;;;;6.65;6.050001;;;;;;;16.67;44.08691;94521.57;;;;
2020/04/26 07:08:10;;;;;;;7.199999;6.2;;;;;;;17;43.48438;94525.2;;;;
2020/04/26 07:09:21;;;;;;;7.199999;6.2;;;;;;;17;43.48438;94525.2;;;;
2020/04/26 07:11:34;;;;;;;7.299999;6.05;;;;;;;17.27;42.73242;94524.94;;;;
2020/04/26 07:12:57;;;;;;;6.900001;5.95;;;;;;;17.52;42.12012;94527.89;;;;
2020/04/26 07:19:18;;;;;;;7.25;5.95;;;;;;;17.99;41.05469;94526.25;;;;
2020/04/26 07:20:25;;;;;;;7.25;5.95;;;;;;;17.99;41.05469;94526.25;;;;
2020/04/26 07:21:34;;;;;;;7.449999;6.05;;;;;;;18.1;40.24121;94528.51;;;;
2020/04/26 07:22:42;;;;;;;7.449999;6.05;;;;;;;18.1;40.24121;94528.51;;;;
2020/04/26 07:24:01;;;;;;;8.05;5.55;;;;;;;18.21;40.04102;94521.34;;;;
2020/04/26 07:31:43;;;;;;;6.850001;6.099999;;;;;;;18.47;39.52539;94531.69;;;;
2020/04/26 07:32:55;;;;;;;7.800001;6.15;;;;;;;18.58;39.55664;94533.65;;;;
2020/04/26 07:34:19;;;;;;;6.5;5.75;;;;;;;18.64;39.30957;94529.55;;;;
2020/04/26 07:35:28;;;;;;;6.5;5.75;;;;;;;18.64;39.30957;94529.55;;;;
2020/04/26 07:36:43;;;;;;;7.049999;5.75;;;;;;;18.7;38.87402;94533.4;;;;
2020/04/26 07:37:55;;;;;;;7.049999;5.75;;;;;;;18.7;38.87402;94533.4;;;;
2020/04/26 07:44:44;;;;;;;8.3;6;;;;;;;18.73;38.67871;94542.91;;;;
2020/04/26 07:45:56;;;;;;;6.799999;5.699999;;;;;;;18.72;38.72168;94537.61;;;;
2020/04/26 07:47:19;;;;;;;6.799999;5.699999;;;;;;;18.72;38.72168;94537.61;;;;
2020/04/26 07:48:21;;;;;;;6.450001;5.7;;;;;;;18.75;38.67969;94540.68;;;;
2020/04/26 07:49:26;;;;;;;6.450001;5.7;;;;;;;18.75;38.67969;94540.68;;;;
2020/04/26 07:50:30;;;;;;;8.4;5.7;;;;;;;18.82;38.69727;94544.64;;;;
2020/04/26 07:51:30;;;;;;;8.4;5.7;;;;;;;18.82;38.69727;94544.64;;;;
2020/04/26 07:52:31;;;;;;;6.899999;5.800001;;;;;;;18.91;38.31934;94541.99;;;;
2020/04/26 07:53:31;;;;;;;6.899999;5.800001;;;;;;;18.91;38.31934;94541.99;;;;
2020/04/26 07:54:32;;;;;;;6.899999;5.800001;;;;;;;18.91;38.31934;94541.99;;;;
2020/04/26 07:55:32;;;;;;;6.3;5.7;;;;;;;18.97;37.90625;94542.55;;;;
2020/04/26 07:56:33;;;;;;;6.3;5.7;;;;;;;18.97;37.90625;94542.55;;;;
2020/04/26 07:57:33;;;;;;;6.3;5.7;;;;;;;18.97;37.90625;94542.55;;;;
2020/04/26 07:58:33;;;;;;;8.799999;5.950001;;;;;;;19.06;38.00098;94545.37;;;;
2020/04/26 07:59:34;;;;;;;8.799999;5.950001;;;;;;;19.06;38.00098;94545.37;;;;
2020/04/26 08:00:34;;;;;;;6.600001;5.699999;;;;;;;19.22;38.30176;94545.28;;;;
2020/04/26 08:01:35;;;;;;;6.600001;5.699999;;;;;;;19.22;38.30176;94545.28;;;;
2020/04/26 08:02:35;;;;;;;6.600001;5.699999;;;;;;;19.22;38.30176;94545.28;;;;
2020/04/26 08:03:36;;;;;;;6.199999;5.6;;;;;;;19.42;37.83301;94548.97;;;;
2020/04/26 08:04:36;;;;;;;6.199999;5.6;;;;;;;19.42;37.83301;94548.97;;;;
2020/04/26 08:05:37;;;;;;;6.199999;5.6;;;;;;;19.42;37.83301;94548.97;;;;
2020/04/26 08:06:37;;;;;;;8.4;5.5;;;;;;;19.73;37.25195;94545.37;;;;
2020/04/26 08:07:37;;;;;;;8.4;5.5;;;;;;;19.73;37.25195;94545.37;;;;
2020/04/26 08:08:38;;;;;;;6.7;5.55;;;;;;;20.23;36.80762;94548.66;;;;
2020/04/26 08:09:38;;;;;;;6.7;5.55;;;;;;;20.23;36.80762;94548.66;;;;
2020/04/26 08:10:39;;;;;;;6.7;5.55;;;;;;;20.23;36.80762;94548.66;;;;
2020/04/26 08:11:39;;;;;;;7.450001;5.349999;;;;;;;20.93;35.91211;94554.69;;;;
2020/04/26 08:12:40;;;;;;;7.450001;5.349999;;;;;;;20.93;35.91211;94554.69;;;;
2020/04/26 08:13:40;;;;;;;6.15;5.45;;;;;;;21.83;34.6748;94553.38;;;;
2020/04/26 08:14:41;;;;;;;6.15;5.45;;;;;;;21.83;34.6748;94553.38;;;;
2020/04/26 08:15:41;;;;;;;6.15;5.45;;;;;;;21.83;34.6748;94553.38;;;;
2020/04/26 08:16:42;;;;;;;6.1;5.400001;;;;;;;22.87;33.14063;94553.41;;;;
2020/04/26 08:17:42;;;;;;;6.1;5.400001;;;;;;;22.87;33.14063;94553.41;;;;
2020/04/26 08:18:43;;;;;;;6.1;5.400001;;;;;;;22.87;33.14063;94553.41;;;;
2020/04/26 08:19:43;;;;;;;6.05;5.149999;;;;;;;23.86;31.75195;94562.16;;;;
2020/04/26 08:20:44;;;;;;;6.05;5.149999;;;;;;;23.86;31.75195;94562.16;;;;
2020/04/26 08:21:44;;;;;;;6.05;5.3;;;;;;;24.87;30.50195;94557.42;;;;
2020/04/26 08:22:45;;;;;;;6.05;5.3;;;;;;;24.87;30.50195;94557.42;;;;
2020/04/26 08:23:45;;;;;;;6.05;5.3;;;;;;;24.87;30.50195;94557.42;;;;
2020/04/26 08:24:46;;;;;;;5.45;4.95;;;;;;;25.77;29.49707;94567.69;;;;
2020/04/26 08:25:46;;;;;;;5.45;4.95;;;;;;;25.77;29.49707;94567.69;;;;
2020/04/26 08:26:47;;;;;;;5.45;4.95;;;;;;;25.77;29.49707;94567.69;;;;
2020/04/26 08:27:47;;;;;;;5.5;5;;;;;;;26.61;28.40527;94565.22;;;;
2020/04/26 08:28:47;;;;;;;5.5;5;;;;;;;26.61;28.40527;94565.22;;;;
2020/04/26 08:29:48;;;;;;;5.900001;5.35;;;;;;;27.46;27.47852;94565.52;;;;
2020/04/26 08:30:48;;;;;;;5.900001;5.35;;;;;;;27.46;27.47852;94565.52;;;;
2020/04/26 08:31:49;;;;;;;5.900001;5.35;;;;;;;27.46;27.47852;94565.52;;;;
2020/04/26 08:32:49;;;;;;;6.150001;5;;;;;;;28.27;26.33008;94562.83;;;;